You are not logged in, Click here to log in
羅馬-菲烏米奇諾機場 / LIRF 義大利拉齊奧大區羅馬省菲烏米奇諾
ICAO: LIRF Country: 義大利拉齊奧大區羅馬省菲烏米奇諾
Latitude: 41.7999 Longitude: 12.2462
Total Arrivals: 18 Total Departures: 16
Latest Arrival: U21631 (LFMN-LIRF)Arthur. Kung Latest Departure: AZ1463 (LIRF-LIPZ)Arthur. Kung
Scenery:
METAR : LIRF 011720Z 27011KT CAVOK 21/14 Q1014 NOSIG

羅馬-菲烏米奇諾機場

You are accessing this site from IP address 34.204.193.85. Virtual Airline. CMS by phpVMS.Website designed by Zumeweb and edited by Theo Bearman.
There is 0 User(s) Online: | and 8 Guest(s) Online.
All information on this site is for fight simulation purposes only. This site is for flight logging for pilots of Virtual Airline&模擬飛行論壇 FlySim only.